Search for airport 
image banner adimage banner adimage banner ad
image banner ad

PA63 - Wpxi-Tv Evergreen Road

Located in Pittsburgh, United States

ICAO - PA63, IATA -

Data provided by Airmate  

General information

Coordinates: N40°29'43" W80°0'38"
Elevation is 1106 feet MSL.
Magnetic variation is +19° East
View others Airports in Pennsylvania

Operational data

Special qualification required
Current time UTC:
Current local time:
Weather at : KAGC - Allegheny County ( 17 km )
METAR: KAGC 091653Z VRB06KT 2 1/2SM R28/5500VP6000FT RA BR BKN008 BKN044 OVC055 05/04 A2990 RMK AO2 SLP135 P0007 T00500044
TAF: KAGC 091456Z 0915/1012 10010KT P6SM VCSH SCT007 OVC040 TEMPO 0915/0918 4SM -SHRA FM091800 08008KT 3SM SHRA OVC007 FM092300 01005KT 4SM -SHRA OVC009 FM100500 35006KT 5SM BR OVC004 FM101000 32006KT P6SM BKN010
View NOTAMs / SUP AIP / TFR affecting this airport [VIEW]
Communications frequencies: [VIEW]

Runways:

RWY identifierQFULength (ft)Width (ft)SurfaceLDA (ft)
18196°300060GRAVE
3616°300060GRAVE

Airport contact information

Address: Pittsburgh United States

Satellite view of PA63